Time;durP1;ratioP1;P1;durP2;ratioP2;P2;SDS_P1;SDS_P2;PMS_P1;PMS_P2;Temp;Humidity;BMP_temperature;BMP_pressure;BME280_temperature;BME280_humidity;BME280_pressure;Samples;Min_cycle;Max_cycle;Signal;HPM_P1;HPM_P2
2023/03/08 00:00:09;;;;;;;38.07;24.90;;;5.50;99.90;;;;;;6250552;28;20479;-62
2023/03/08 00:03:14;;;;;;;42.00;26.17;;;5.50;99.90;;;;;;6249907;28;20475;-62
2023/03/08 00:06:17;;;;;;;39.03;24.77;;;5.60;99.90;;;;;;6250540;28;20471;-62
2023/03/08 00:09:20;;;;;;;36.93;26.00;;;5.60;99.90;;;;;;6250003;28;20467;-62
2023/03/08 00:12:23;;;;;;;37.87;25.00;;;5.50;99.90;;;;;;6249528;28;20475;-62
2023/03/08 00:15:28;;;;;;;39.67;26.93;;;5.50;99.90;;;;;;6249431;28;20486;-62
2023/03/08 00:18:32;;;;;;;36.57;25.63;;;5.50;99.90;;;;;;6249845;28;20554;-62
2023/03/08 00:21:35;;;;;;;39.03;24.87;;;5.50;99.90;;;;;;6236854;28;20581;-61
2023/03/08 00:24:38;;;;;;;33.10;24.07;;;5.50;99.90;;;;;;6225060;28;20490;-61
2023/03/08 00:27:42;;;;;;;33.87;22.33;;;5.50;99.90;;;;;;6227650;28;20482;-61
2023/03/08 00:30:54;;;;;;;33.93;23.60;;;5.50;99.90;;;;;;6224583;28;20782;-61
2023/03/08 00:33:57;;;;;;;31.33;24.27;;;5.60;99.90;;;;;;6224614;28;20959;-61
2023/03/08 00:37:00;;;;;;;29.30;21.77;;;5.70;99.90;;;;;;6224965;28;20501;-61
2023/03/08 00:40:04;;;;;;;39.20;23.20;;;5.70;99.90;;;;;;6243642;28;20482;-61
2023/03/08 00:43:08;;;;;;;34.20;23.20;;;5.70;99.90;;;;;;6249391;28;20797;-61
2023/03/08 00:46:13;;;;;;;31.53;22.73;;;5.80;99.90;;;;;;6249419;28;20486;-60
2023/03/08 00:49:16;;;;;;;28.83;22.83;;;5.80;99.90;;;;;;6249293;28;20482;-61
2023/03/08 00:52:19;;;;;;;37.93;23.23;;;5.80;99.90;;;;;;6249551;28;20493;-60
2023/03/08 00:55:22;;;;;;;32.57;21.70;;;5.90;99.90;;;;;;6249301;28;20478;-60
2023/03/08 00:58:28;;;;;;;32.53;21.83;;;5.90;99.90;;;;;;6249411;28;20470;-60
2023/03/08 01:01:33;;;;;;;34.10;23.90;;;5.90;99.90;;;;;;6252327;28;20481;-61
2023/03/08 01:04:36;;;;;;;41.30;25.20;;;5.90;99.90;;;;;;6273443;28;20544;-60
2023/03/08 01:07:39;;;;;;;39.87;27.10;;;5.90;99.90;;;;;;6274306;28;20469;-60
2023/03/08 01:10:47;;;;;;;33.83;24.63;;;5.90;99.90;;;;;;6275673;28;20481;-61
2023/03/08 01:13:51;;;;;;;46.40;29.87;;;5.80;99.90;;;;;;6273988;28;20445;-60
2023/03/08 01:16:56;;;;;;;49.43;33.73;;;5.80;99.90;;;;;;6273730;28;20482;-60
2023/03/08 01:19:59;;;;;;;37.10;25.73;;;5.80;99.90;;;;;;6273906;28;20473;-60
2023/03/08 01:23:02;;;;;;;34.50;25.90;;;5.80;99.90;;;;;;6274074;28;20460;-61
2023/03/08 01:26:07;;;;;;;40.93;29.33;;;5.70;99.90;;;;;;6277582;28;20453;-61
2023/03/08 01:29:10;;;;;;;44.37;27.70;;;5.70;99.90;;;;;;6278452;28;20469;-61
2023/03/08 01:32:15;;;;;;;36.40;26.10;;;5.70;99.90;;;;;;6277837;28;20461;-61
2023/03/08 01:35:18;;;;;;;34.53;24.00;;;5.70;99.90;;;;;;6278297;28;20477;-61
2023/03/08 01:38:21;;;;;;;36.10;24.50;;;5.70;99.90;;;;;;6272445;28;20467;-61
2023/03/08 01:41:26;;;;;;;31.97;22.77;;;5.60;99.90;;;;;;6245139;28;20479;-61
2023/03/08 01:44:48;;;;;;;29.50;22.23;;;5.60;99.90;;;;;;6228677;28;20464;-61
2023/03/08 01:47:52;;;;;;;27.33;19.80;;;5.60;99.90;;;;;;6228115;28;20962;-61
2023/03/08 01:50:56;;;;;;;27.80;21.47;;;5.60;99.90;;;;;;6228627;28;20476;-61
2023/03/08 01:54:01;;;;;;;24.50;17.90;;;5.70;99.90;;;;;;6228511;28;20960;-61
2023/03/08 01:57:08;;;;;;;23.87;18.37;;;5.70;99.90;;;;;;6228323;28;20773;-61
2023/03/08 02:00:14;;;;;;;25.50;17.33;;;5.80;99.90;;;;;;6223475;28;20480;-61
2023/03/08 02:03:18;;;;;;;22.93;17.10;;;5.90;99.90;;;;;;6263265;28;20473;-61
2023/03/08 02:06:22;;;;;;;23.97;17.30;;;5.90;99.90;;;;;;6277442;28;20516;-60
2023/03/08 02:09:25;;;;;;;20.33;16.87;;;5.90;99.90;;;;;;6277355;28;20482;-61
2023/03/08 02:12:29;;;;;;;27.70;17.97;;;6.00;99.90;;;;;;6277289;28;20485;-61
2023/03/08 02:15:32;;;;;;;22.37;17.33;;;6.00;99.90;;;;;;6276939;28;20474;-61
2023/03/08 02:18:37;;;;;;;22.00;15.87;;;6.00;99.90;;;;;;6276527;28;20969;-61
2023/03/08 02:21:40;;;;;;;23.73;17.20;;;6.10;99.90;;;;;;6276615;28;20474;-61
2023/03/08 02:24:45;;;;;;;28.00;19.57;;;6.10;99.90;;;;;;6276696;28;20470;-61
2023/03/08 02:27:49;;;;;;;27.00;19.03;;;6.20;99.90;;;;;;6276555;28;20478;-60
2023/03/08 02:30:53;;;;;;;30.87;20.50;;;6.20;99.90;;;;;;6276191;28;20564;-62
2023/03/08 02:33:56;;;;;;;27.90;20.23;;;6.10;99.90;;;;;;6276561;28;20804;-61
2023/03/08 02:36:59;;;;;;;34.20;22.90;;;6.10;99.90;;;;;;6275690;28;20493;-61
2023/03/08 02:40:05;;;;;;;35.70;25.50;;;6.10;99.90;;;;;;6256883;28;20471;-61
2023/03/08 02:43:08;;;;;;;34.77;24.83;;;6.10;99.90;;;;;;6251984;28;20965;-61
2023/03/08 02:46:11;;;;;;;41.57;25.07;;;6.00;99.90;;;;;;6251145;28;20471;-61
2023/03/08 02:49:15;;;;;;;33.70;23.70;;;6.00;99.90;;;;;;6251117;28;20490;-62
2023/03/08 02:52:18;;;;;;;26.97;19.30;;;6.00;99.90;;;;;;6245808;28;20471;-61
2023/03/08 02:55:24;;;;;;;33.73;24.87;;;6.00;99.90;;;;;;6243269;28;20483;-61
2023/03/08 02:58:27;;;;;;;34.13;24.53;;;6.00;99.90;;;;;;6235461;28;21032;-61
2023/03/08 03:01:30;;;;;;;31.90;25.10;;;6.00;99.90;;;;;;6233396;28;20477;-61
2023/03/08 03:04:34;;;;;;;40.70;25.40;;;5.90;99.90;;;;;;6271467;28;20496;-61
2023/03/08 03:07:37;;;;;;;37.33;25.20;;;5.80;99.90;;;;;;6275983;28;20818;-61
2023/03/08 03:10:42;;;;;;;38.00;25.50;;;5.60;99.90;;;;;;6275028;28;20477;-61
2023/03/08 03:13:46;;;;;;;38.40;25.70;;;5.50;99.90;;;;;;6275415;28;20477;-60
2023/03/08 03:16:49;;;;;;;31.27;23.73;;;5.50;99.90;;;;;;6274642;28;20493;-61
2023/03/08 03:19:52;;;;;;;41.67;27.00;;;5.50;99.90;;;;;;6276029;28;20454;-60
2023/03/08 03:22:55;;;;;;;38.87;27.07;;;5.50;99.90;;;;;;6275373;28;20450;-61
2023/03/08 03:26:06;;;;;;;35.10;24.87;;;5.60;99.90;;;;;;6275316;28;20447;-61
2023/03/08 03:29:09;;;;;;;34.17;25.43;;;5.50;99.90;;;;;;6275337;28;20470;-60
2023/03/08 03:32:13;;;;;;;35.23;24.83;;;5.50;99.90;;;;;;6275423;28;20458;-61
2023/03/08 03:35:16;;;;;;;39.27;24.77;;;5.40;99.90;;;;;;6275059;28;20531;-60
2023/03/08 03:38:19;;;;;;;36.13;24.60;;;5.50;99.90;;;;;;6269613;28;20839;-60
2023/03/08 03:41:24;;;;;;;37.30;25.73;;;5.50;99.90;;;;;;6250559;28;20463;-61
2023/03/08 03:44:29;;;;;;;30.87;23.10;;;5.60;99.90;;;;;;6250083;28;20792;-61
2023/03/08 03:47:33;;;;;;;35.37;24.47;;;5.60;99.90;;;;;;6249342;28;20487;-61
2023/03/08 03:50:36;;;;;;;31.57;23.80;;;5.60;99.90;;;;;;6250102;28;20471;-61
2023/03/08 03:53:39;;;;;;;36.70;24.27;;;5.60;99.90;;;;;;6250172;28;20466;-61
2023/03/08 03:56:44;;;;;;;36.50;25.50;;;5.50;99.90;;;;;;6249970;28;20470;-61
2023/03/08 03:59:47;;;;;;;36.17;24.33;;;5.40;99.90;;;;;;6249862;28;20939;-61
2023/03/08 04:02:50;;;;;;;30.50;22.53;;;5.30;99.90;;;;;;6264204;28;20481;-61
2023/03/08 04:05:54;;;;;;;31.13;22.60;;;5.10;99.90;;;;;;6274747;28;20599;-61
2023/03/08 04:08:59;;;;;;;28.83;21.10;;;4.90;99.90;;;;;;6274571;28;20485;-61
2023/03/08 04:12:04;;;;;;;36.97;23.80;;;4.80;99.90;;;;;;6274468;28;20485;-60
2023/03/08 04:15:08;;;;;;;35.33;22.57;;;5.00;99.90;;;;;;6274571;28;20485;-60
2023/03/08 04:18:12;;;;;;;30.97;23.13;;;4.90;99.90;;;;;;6274357;28;20466;-61
2023/03/08 04:21:15;;;;;;;39.70;24.70;;;5.00;99.90;;;;;;6274726;28;20806;-60
2023/03/08 04:24:18;;;;;;;33.17;24.57;;;4.90;99.90;;;;;;6274680;28;20953;-61
2023/03/08 04:27:23;;;;;;;32.57;24.00;;;4.90;99.90;;;;;;6274097;28;20823;-61
2023/03/08 04:30:26;;;;;;;36.90;24.20;;;4.80;99.90;;;;;;6265360;28;20482;-61
2023/03/08 04:33:29;;;;;;;35.30;25.00;;;4.70;99.90;;;;;;6249264;28;20996;-60
2023/03/08 04:36:32;;;;;;;36.40;25.77;;;4.70;99.90;;;;;;6249306;28;20479;-61
2023/03/08 04:39:35;;;;;;;33.73;25.07;;;4.60;99.90;;;;;;6249700;28;20684;-61
2023/03/08 04:42:40;;;;;;;36.33;23.80;;;4.60;99.90;;;;;;6250347;28;20482;-60
2023/03/08 04:45:43;;;;;;;41.73;25.43;;;4.50;99.90;;;;;;6249384;28;20471;-60
2023/03/08 04:48:47;;;;;;;36.07;24.87;;;4.50;99.90;;;;;;6249109;28;20967;-65
2023/03/08 04:51:50;;;;;;;34.90;22.90;;;4.50;99.90;;;;;;6249460;28;20479;-62
2023/03/08 04:54:54;;;;;;;35.47;25.97;;;4.40;99.90;;;;;;6249201;28;20474;-60
2023/03/08 04:57:58;;;;;;;41.20;25.63;;;4.50;99.90;;;;;;6249005;28;20487;-60
2023/03/08 05:01:09;;;;;;;41.33;25.60;;;4.50;99.90;;;;;;6252936;28;20470;-61
2023/03/08 05:04:12;;;;;;;38.30;23.40;;;4.50;99.90;;;;;;6253463;28;20478;-61
2023/03/08 05:07:15;;;;;;;29.50;23.93;;;4.40;99.90;;;;;;6253950;28;20473;-66
2023/03/08 05:10:18;;;;;;;34.17;25.40;;;4.40;99.90;;;;;;6253823;28;20479;-66
2023/03/08 05:13:23;;;;;;;32.33;23.77;;;4.40;99.90;;;;;;6244946;28;20489;-66
2023/03/08 05:16:26;;;;;;;36.60;26.00;;;4.40;99.90;;;;;;6253493;28;20479;-65
2023/03/08 05:19:30;;;;;;;34.13;25.17;;;4.30;99.90;;;;;;6253804;28;20478;-65
2023/03/08 05:22:33;;;;;;;38.90;25.30;;;4.20;99.90;;;;;;6253894;28;20482;-66
2023/03/08 05:25:58;;;;;;;33.50;23.30;;;4.20;99.90;;;;;;6253195;28;20581;-66
2023/03/08 05:29:05;;;;;;;38.20;25.13;;;4.20;99.90;;;;;;6253349;28;20458;-65
2023/03/08 05:32:11;;;;;;;34.87;24.77;;;4.20;99.90;;;;;;6253192;28;20439;-66
2023/03/08 05:35:14;;;;;;;32.03;24.90;;;4.30;99.90;;;;;;6254098;28;20770;-62
2023/03/08 05:38:17;;;;;;;37.73;25.83;;;4.30;99.90;;;;;;6254922;28;20462;-65
2023/03/08 05:41:21;;;;;;;39.13;24.13;;;4.30;99.90;;;;;;6255952;28;20478;-66
2023/03/08 05:44:26;;;;;;;35.43;24.80;;;4.40;99.90;;;;;;6253346;28;20966;-65
2023/03/08 05:47:29;;;;;;;40.33;26.33;;;4.40;99.90;;;;;;6253326;28;20486;-65
2023/03/08 05:50:32;;;;;;;36.13;24.47;;;4.40;99.90;;;;;;6253204;28;20463;-66
2023/03/08 05:53:36;;;;;;;34.47;24.70;;;4.50;99.90;;;;;;6252597;28;20816;-65
2023/03/08 05:56:39;;;;;;;34.20;25.13;;;4.70;99.90;;;;;;6252444;28;20471;-65
2023/03/08 05:59:43;;;;;;;35.37;23.73;;;4.70;99.90;;;;;;6252481;28;20483;-65
2023/03/08 06:02:47;;;;;;;27.77;21.00;;;4.80;99.90;;;;;;6266288;28;20489;-65
2023/03/08 06:05:50;;;;;;;29.53;22.83;;;4.90;99.90;;;;;;6277374;28;20527;-65
2023/03/08 06:08:55;;;;;;;33.27;23.40;;;5.00;99.90;;;;;;6277298;28;20493;-65
2023/03/08 06:11:58;;;;;;;31.87;24.27;;;5.10;99.90;;;;;;6276317;28;20807;-65
2023/03/08 06:15:03;;;;;;;33.73;22.17;;;5.20;99.90;;;;;;6272408;28;20470;-65
2023/03/08 06:18:06;;;;;;;37.40;23.27;;;5.40;99.90;;;;;;6276951;28;20966;-66
2023/03/08 06:21:12;;;;;;;33.73;24.07;;;5.50;99.90;;;;;;6276840;28;20474;-65
2023/03/08 06:24:15;;;;;;;33.67;24.37;;;5.50;99.90;;;;;;6277375;28;20466;-65
2023/03/08 06:27:18;;;;;;;30.57;24.60;;;5.60;99.90;;;;;;6277046;28;20476;-65
2023/03/08 06:30:23;;;;;;;30.53;22.80;;;5.70;99.90;;;;;;6280406;28;20480;-65
2023/03/08 06:33:29;;;;;;;31.50;22.37;;;5.90;99.90;;;;;;6277155;28;20466;-65
2023/03/08 06:36:32;;;;;;;36.77;25.27;;;6.10;99.90;;;;;;6277306;28;20470;-65
2023/03/08 06:39:35;;;;;;;30.93;21.53;;;6.20;99.90;;;;;;6260915;28;20481;-65
2023/03/08 06:42:38;;;;;;;31.77;24.90;;;6.40;99.90;;;;;;6251813;28;20467;-66
2023/03/08 06:45:45;;;;;;;34.57;25.13;;;6.50;99.90;;;;;;6251705;28;20555;-65
2023/03/08 06:48:49;;;;;;;34.30;22.50;;;6.60;99.90;;;;;;6252573;28;20475;-65
2023/03/08 06:51:52;;;;;;;35.00;25.27;;;6.80;99.90;;;;;;6260006;28;20478;-65
2023/03/08 06:54:55;;;;;;;34.77;23.53;;;6.90;99.90;;;;;;6253297;28;20842;-65
2023/03/08 06:57:58;;;;;;;25.60;22.27;;;7.10;99.90;;;;;;6251202;28;20809;-65
2023/03/08 07:01:04;;;;;;;27.93;22.47;;;7.50;99.90;;;;;;6251332;28;20475;-66
2023/03/08 07:04:08;;;;;;;32.57;24.53;;;7.60;99.90;;;;;;6276403;28;20476;-66
2023/03/08 07:07:11;;;;;;;30.10;23.90;;;7.70;99.90;;;;;;6276168;28;20648;-65
2023/03/08 07:10:18;;;;;;;25.83;21.80;;;7.70;99.90;;;;;;6276054;28;20477;-65
2023/03/08 07:13:22;;;;;;;28.10;22.30;;;7.80;99.90;;;;;;6277133;28;20481;-65
2023/03/08 07:16:28;;;;;;;30.83;22.97;;;7.90;99.90;;;;;;6278418;28;20473;-63
2023/03/08 07:19:31;;;;;;;26.77;21.33;;;8.10;99.90;;;;;;6273816;28;20482;-66
2023/03/08 07:22:34;;;;;;;23.73;20.20;;;8.30;99.90;;;;;;6276105;28;20477;-66
2023/03/08 07:25:38;;;;;;;25.13;20.90;;;8.50;99.90;;;;;;6275320;28;20771;-66
2023/03/08 07:28:42;;;;;;;23.17;19.20;;;8.70;99.90;;;;;;6275722;28;20473;-66
2023/03/08 07:31:46;;;;;;;28.03;21.67;;;8.80;99.90;;;;;;6277442;28;20470;-66
2023/03/08 07:34:49;;;;;;;25.40;19.73;;;8.80;99.90;;;;;;6277562;28;20642;-64
2023/03/08 07:37:53;;;;;;;23.10;19.30;;;8.90;99.90;;;;;;6273973;28;20902;-65
2023/03/08 07:40:57;;;;;;;23.53;18.43;;;9.00;99.90;;;;;;6250056;28;20501;-65
2023/03/08 07:44:01;;;;;;;25.43;19.80;;;9.10;99.90;;;;;;6250302;28;20451;-65
2023/03/08 07:47:06;;;;;;;25.60;19.10;;;9.30;99.90;;;;;;6250626;28;20517;-64
2023/03/08 07:50:11;;;;;;;24.77;19.63;;;9.40;99.90;;;;;;6250319;28;20847;-65
2023/03/08 07:53:15;;;;;;;25.67;19.00;;;9.80;99.80;;;;;;6251160;28;20470;-66
2023/03/08 07:56:18;;;;;;;25.73;19.20;;;10.70;98.30;;;;;;6250812;28;20482;-65
2023/03/08 07:59:21;;;;;;;25.37;19.47;;;11.30;97.60;;;;;;6250346;28;20471;-65
2023/03/08 08:02:26;;;;;;;22.73;17.67;;;12.50;96.30;;;;;;6260810;28;20474;-65
2023/03/08 08:05:29;;;;;;;23.20;19.43;;;13.40;93.50;;;;;;6275040;28;20953;-65
2023/03/08 08:08:33;;;;;;;24.50;20.33;;;13.90;90.80;;;;;;6274630;28;20488;-65
2023/03/08 08:11:37;;;;;;;28.40;19.20;;;14.10;89.20;;;;;;6274654;28;20481;-65
2023/03/08 08:14:40;;;;;;;21.87;18.00;;;14.00;86.50;;;;;;6274663;28;20957;-64
2023/03/08 08:17:45;;;;;;;28.17;24.87;;;13.70;85.50;;;;;;6277774;28;20470;-64
2023/03/08 08:20:48;;;;;;;24.73;18.83;;;13.60;85.60;;;;;;6274999;28;20479;-65
2023/03/08 08:23:52;;;;;;;23.27;19.60;;;13.60;85.70;;;;;;6243845;28;20471;-65
2023/03/08 08:26:55;;;;;;;23.40;18.60;;;13.60;84.40;;;;;;6250106;28;20471;-65
2023/03/08 08:29:59;;;;;;;20.50;17.17;;;13.70;84.40;;;;;;6249722;28;20935;-65
2023/03/08 08:33:05;;;;;;;22.30;16.37;;;13.80;83.70;;;;;;6249518;28;20483;-65
2023/03/08 08:36:09;;;;;;;19.07;17.00;;;13.80;82.00;;;;;;6245247;28;20485;-66
2023/03/08 08:39:13;;;;;;;19.80;17.33;;;13.90;81.40;;;;;;6243745;28;20475;-64
2023/03/08 08:42:16;;;;;;;20.87;15.83;;;13.90;79.70;;;;;;6252750;28;20475;-67
2023/03/08 08:45:19;;;;;;;22.20;18.60;;;13.80;80.80;;;;;;6241030;28;20490;-66
2023/03/08 08:48:24;;;;;;;20.07;16.60;;;14.00;80.50;;;;;;6247914;28;20470;-66
2023/03/08 08:51:28;;;;;;;27.70;18.13;;;14.30;79.60;;;;;;6242868;28;20472;-65
2023/03/08 08:54:32;;;;;;;21.07;16.77;;;14.70;76.80;;;;;;6244871;28;20482;-66
2023/03/08 08:57:35;;;;;;;21.20;16.93;;;15.00;74.60;;;;;;6234427;28;20530;-65
2023/03/08 09:00:39;;;;;;;18.90;15.87;;;15.10;73.50;;;;;;6228877;28;20814;-65
2023/03/08 09:03:44;;;;;;;20.37;15.57;;;15.10;72.60;;;;;;6273888;28;20484;-65
2023/03/08 09:06:47;;;;;;;18.17;16.17;;;15.10;71.40;;;;;;6278597;28;20922;-65
2023/03/08 09:09:50;;;;;;;18.47;15.43;;;14.90;71.50;;;;;;6275371;28;20485;-64
2023/03/08 09:12:53;;;;;;;16.60;14.80;;;14.70;70.40;;;;;;6252374;28;20485;-68
2023/03/08 09:15:59;;;;;;;16.00;14.07;;;14.50;69.60;;;;;;6251681;28;20483;-64
2023/03/08 09:19:05;;;;;;;18.03;15.57;;;14.40;68.40;;;;;;6252936;28;20479;-64
2023/03/08 09:22:09;;;;;;;17.23;13.90;;;14.20;68.50;;;;;;6253262;28;20467;-65
2023/03/08 09:25:13;;;;;;;18.30;14.80;;;13.90;69.90;;;;;;6253935;28;20467;-64
2023/03/08 09:28:16;;;;;;;23.50;17.23;;;13.70;71.00;;;;;;6253573;28;20482;-64
2023/03/08 09:31:19;;;;;;;22.90;15.63;;;13.40;71.20;;;;;;6253339;28;20474;-64
2023/03/08 09:34:24;;;;;;;20.07;16.50;;;13.20;72.10;;;;;;6253473;28;21214;-65
2023/03/08 09:37:27;;;;;;;18.97;14.70;;;13.10;72.50;;;;;;6252749;28;20975;-65
2023/03/08 09:40:39;;;;;;;19.67;14.40;;;13.10;72.50;;;;;;6252790;28;20548;-65
2023/03/08 09:43:49;;;;;;;16.30;14.23;;;13.10;71.80;;;;;;6252949;28;20482;-65
2023/03/08 09:46:59;;;;;;;19.77;16.10;;;13.10;70.50;;;;;;6253294;28;20482;-65
2023/03/08 09:50:17;;;;;;;18.13;15.17;;;13.10;70.80;;;;;;6252910;28;20463;-65
2023/03/08 09:53:26;;;;;;;21.67;15.87;;;13.00;69.90;;;;;;6253346;28;20471;-65
2023/03/08 09:56:33;;;;;;;16.00;12.93;;;12.90;70.10;;;;;;6252430;28;21042;-64
2023/03/08 09:59:41;;;;;;;23.33;15.57;;;12.70;70.00;;;;;;6267340;28;20475;-65
2023/03/08 10:02:54;;;;;;;18.87;16.80;;;12.60;71.10;;;;;;6276988;28;20953;-65
2023/03/08 10:06:06;;;;;;;18.67;16.67;;;12.50;72.30;;;;;;6278268;28;21000;-65
2023/03/08 10:09:26;;;;;;;20.93;16.20;;;12.30;72.50;;;;;;6277130;28;20477;-65
2023/03/08 10:12:35;;;;;;;21.00;16.07;;;12.20;74.30;;;;;;6256271;28;20467;-65
2023/03/08 10:15:42;;;;;;;21.60;17.33;;;12.20;74.60;;;;;;6252391;28;20475;-65
2023/03/08 10:18:50;;;;;;;24.57;17.77;;;12.30;74.90;;;;;;6249129;28;20478;-66
2023/03/08 10:21:59;;;;;;;20.23;16.90;;;12.30;75.20;;;;;;6234816;28;20483;-65
2023/03/08 10:25:15;;;;;;;24.13;15.83;;;12.10;75.60;;;;;;6227916;28;20954;-65
2023/03/08 10:28:21;;;;;;;20.67;17.23;;;12.20;76.60;;;;;;6236331;28;20471;-65
2023/03/08 10:31:26;;;;;;;21.50;16.93;;;12.20;76.70;;;;;;6240602;28;20975;-66
2023/03/08 10:34:31;;;;;;;23.97;17.80;;;12.00;77.30;;;;;;6249128;28;20478;-66
2023/03/08 10:37:36;;;;;;;21.33;16.60;;;12.00;78.00;;;;;;6227100;28;20483;-65
2023/03/08 10:40:39;;;;;;;21.33;17.27;;;12.00;77.90;;;;;;6237418;28;20483;-65
2023/03/08 10:43:47;;;;;;;19.50;17.50;;;12.10;78.40;;;;;;6234687;28;20468;-66
2023/03/08 10:46:50;;;;;;;19.57;17.23;;;12.20;78.80;;;;;;6247910;28;20472;-68
2023/03/08 10:50:14;;;;;;;21.97;17.97;;;12.30;78.60;;;;;;6226447;28;20480;-65
2023/03/08 10:53:21;;;;;;;24.57;17.23;;;12.40;79.30;;;;;;6238906;28;21006;-67
2023/03/08 10:56:29;;;;;;;18.50;16.40;;;12.70;78.60;;;;;;6250853;28;20494;-64
2023/03/08 10:59:34;;;;;;;16.07;14.43;;;13.00;77.70;;;;;;6250980;28;20806;-65
2023/03/08 11:02:38;;;;;;;18.70;16.37;;;13.10;75.60;;;;;;6263333;28;20968;-65
2023/03/08 11:05:51;;;;;;;23.40;16.60;;;12.90;76.40;;;;;;6275803;28;20466;-66
2023/03/08 11:08:58;;;;;;;19.10;16.13;;;13.20;77.10;;;;;;6275221;28;20486;-66
2023/03/08 11:12:01;;;;;;;16.40;14.70;;;14.60;75.50;;;;;;6258253;28;20467;-64
2023/03/08 11:15:13;;;;;;;18.17;15.37;;;15.80;69.90;;;;;;6250579;28;20954;-66
2023/03/08 11:18:28;;;;;;;17.97;15.97;;;16.20;68.20;;;;;;6240555;28;20471;-64
2023/03/08 11:21:44;;;;;;;19.70;16.27;;;16.60;67.10;;;;;;6231098;28;20471;-64
2023/03/08 11:25:13;;;;;;;19.10;15.83;;;17.30;63.90;;;;;;6226346;28;20472;-64
2023/03/08 11:28:30;;;;;;;17.83;16.03;;;17.30;63.20;;;;;;6240012;28;20476;-65
2023/03/08 11:31:37;;;;;;;16.63;15.03;;;19.80;59.20;;;;;;6226056;28;20304;-65
2023/03/08 11:34:54;;;;;;;21.90;16.70;;;20.20;54.40;;;;;;6225871;28;20241;-65
2023/03/08 11:38:03;;;;;;;18.77;15.53;;;20.20;53.70;;;;;;6238680;28;20236;-65
2023/03/08 11:41:19;;;;;;;16.77;14.20;;;21.20;50.50;;;;;;6251122;28;20208;-66
2023/03/08 11:44:38;;;;;;;17.97;16.00;;;22.50;48.10;;;;;;6253132;28;20247;-64
2023/03/08 11:47:56;;;;;;;17.47;15.87;;;23.60;44.40;;;;;;6250774;28;20558;-63
2023/03/08 11:51:06;;;;;;;16.70;15.10;;;25.90;39.80;;;;;;6250046;28;20428;-68
2023/03/08 11:54:18;;;;;;;16.50;14.80;;;27.90;34.30;;;;;;6250366;28;20242;-66
2023/03/08 11:57:25;;;;;;;16.80;15.20;;;30.20;29.80;;;;;;6250257;28;20231;-65
2023/03/08 12:00:32;;;;;;;16.48;15.07;;;33.50;25.30;;;;;;6239141;28;20232;-68
2023/03/08 12:03:40;;;;;;;16.05;14.65;;;34.00;22.30;;;;;;6239361;28;20219;-68
2023/03/08 12:06:45;;;;;;;16.52;15.05;;;35.10;21.20;;;;;;6228037;28;20303;-65
2023/03/08 12:09:56;;;;;;;14.20;13.13;;;36.70;20.10;;;;;;6227076;28;20382;-67
2023/03/08 12:13:11;;;;;;;16.00;14.63;;;38.30;18.40;;;;;;6225525;28;20240;-66
2023/03/08 12:16:19;;;;;;;16.35;15.02;;;37.90;17.40;;;;;;6225050;28;20228;-67
2023/03/08 12:19:31;;;;;;;16.50;15.07;;;38.30;17.20;;;;;;6238047;28;20227;-64
2023/03/08 12:22:45;;;;;;;15.27;13.95;;;39.60;16.40;;;;;;6249398;28;20231;-65
2023/03/08 12:25:51;;;;;;;14.35;13.18;;;37.90;16.80;;;;;;6249339;28;20243;-65
2023/03/08 12:29:00;;;;;;;15.02;13.73;;;37.70;16.90;;;;;;6225080;28;20227;-65
2023/03/08 12:32:04;;;;;;;15.38;14.10;;;38.40;16.40;;;;;;6227889;28;20653;-67
2023/03/08 12:35:25;;;;;;;15.80;13.82;;;40.10;16.00;;;;;;6236112;28;20307;-66
2023/03/08 12:38:37;;;;;;;13.98;12.88;;;40.10;15.00;;;;;;6245814;28;20229;-67
2023/03/08 12:41:40;;;;;;;15.52;14.32;;;37.90;16.00;;;;;;6227961;28;20235;-66
2023/03/08 12:44:45;;;;;;;14.52;13.32;;;37.70;16.00;;;;;;6225588;28;20652;-65
2023/03/08 12:47:57;;;;;;;14.02;12.93;;;37.50;16.60;;;;;;6251255;28;20231;-68
2023/03/08 12:51:04;;;;;;;15.73;14.32;;;36.40;16.60;;;;;;6250846;28;20228;-66
2023/03/08 12:54:22;;;;;;;15.60;14.30;;;34.60;17.80;;;;;;6250015;28;20329;-67
2023/03/08 12:57:29;;;;;;;16.02;14.65;;;33.30;18.90;;;;;;6249230;28;20704;-65
2023/03/08 13:00:36;;;;;;;15.48;14.25;;;31.90;20.00;;;;;;6248683;28;20681;-65
2023/03/08 13:03:41;;;;;;;15.32;14.05;;;32.50;19.90;;;;;;6249119;28;20245;-65
2023/03/08 13:07:10;;;;;;;15.57;14.35;;;32.50;19.80;;;;;;6249031;28;20676;-65
2023/03/08 13:10:21;;;;;;;14.98;13.73;;;31.70;20.60;;;;;;6249572;28;20266;-66
2023/03/08 13:13:31;;;;;;;14.77;13.57;;;34.50;19.20;;;;;;6249342;28;20246;-66
2023/03/08 13:16:42;;;;;;;14.20;13.00;;;34.80;18.80;;;;;;6248937;28;20232;-66
2023/03/08 13:19:48;;;;;;;15.93;14.50;;;36.20;17.80;;;;;;6249211;28;20255;-65
2023/03/08 13:23:04;;;;;;;15.52;14.25;;;34.50;18.50;;;;;;6253196;28;20664;-66
2023/03/08 13:26:34;;;;;;;14.73;13.18;;;35.40;18.00;;;;;;6253239;28;20223;-66
2023/03/08 13:29:53;;;;;;;14.50;13.10;;;36.40;17.70;;;;;;6250263;28;20692;-66
2023/03/08 13:32:59;;;;;;;14.02;12.80;;;37.60;16.90;;;;;;6256764;28;20227;-66
2023/03/08 13:36:06;;;;;;;14.25;13.07;;;37.30;16.70;;;;;;6256305;28;20242;-67
2023/03/08 13:39:19;;;;;;;14.10;12.60;;;37.80;16.60;;;;;;6253118;28;20312;-68
2023/03/08 13:42:24;;;;;;;17.02;13.00;;;38.20;16.20;;;;;;6242246;28;20542;-66
2023/03/08 13:45:28;;;;;;;15.95;13.20;;;37.70;16.50;;;;;;6250236;28;20231;-67
2023/03/08 13:48:35;;;;;;;14.45;13.25;;;37.40;16.80;;;;;;6244256;28;20950;-65
2023/03/08 13:51:38;;;;;;;14.88;13.60;;;34.30;18.50;;;;;;6252731;28;20228;-65
2023/03/08 13:54:45;;;;;;;13.03;11.90;;;31.00;20.80;;;;;;6252769;28;20266;-65
2023/03/08 13:57:52;;;;;;;13.43;12.13;;;28.30;23.50;;;;;;6252738;28;20397;-64
2023/03/08 14:01:03;;;;;;;14.57;13.27;;;26.60;25.30;;;;;;6252841;28;20228;-63
2023/03/08 14:04:16;;;;;;;13.23;11.83;;;24.70;27.30;;;;;;6252750;28;20648;-63
2023/03/08 14:07:23;;;;;;;11.43;10.43;;;22.90;29.20;;;;;;6252543;28;20224;-61
2023/03/08 14:10:34;;;;;;;11.70;10.50;;;21.70;30.90;;;;;;6246344;28;20306;-61
2023/03/08 14:13:40;;;;;;;13.60;10.17;;;20.90;32.30;;;;;;6247330;28;20235;-61
2023/03/08 14:16:43;;;;;;;9.87;8.90;;;20.00;33.70;;;;;;6242089;28;20254;-61
2023/03/08 14:19:53;;;;;;;10.10;9.10;;;19.10;35.60;;;;;;6245489;28;20224;-61
2023/03/08 14:22:57;;;;;;;9.40;8.40;;;18.40;37.60;;;;;;6240497;28;20229;-62
2023/03/08 14:26:00;;;;;;;8.97;8.07;;;18.10;38.50;;;;;;6244672;28;20232;-62
2023/03/08 14:29:14;;;;;;;12.40;9.60;;;17.50;39.60;;;;;;6236069;28;20664;-62
2023/03/08 14:32:29;;;;;;;13.27;8.10;;;17.30;40.60;;;;;;6225659;28;20430;-61
2023/03/08 14:35:37;;;;;;;12.73;8.40;;;17.10;41.50;;;;;;6229420;28;20467;-63
2023/03/08 14:38:40;;;;;;;10.00;7.23;;;16.60;42.20;;;;;;6249903;28;20483;-62
2023/03/08 14:41:44;;;;;;;9.37;7.83;;;16.30;43.10;;;;;;6251604;28;20501;-61
2023/03/08 14:44:52;;;;;;;7.60;6.27;;;15.90;44.20;;;;;;6251591;28;20470;-61
2023/03/08 14:47:57;;;;;;;9.27;6.70;;;15.90;44.70;;;;;;6251349;28;20570;-62
2023/03/08 14:51:03;;;;;;;8.40;6.97;;;15.70;45.10;;;;;;6246938;28;20828;-62
2023/03/08 14:54:22;;;;;;;9.97;7.70;;;15.60;45.30;;;;;;6251154;28;20793;-64
2023/03/08 14:57:27;;;;;;;6.70;6.00;;;15.80;45.30;;;;;;6251186;28;20817;-67
2023/03/08 15:00:31;;;;;;;8.80;6.37;;;15.70;45.30;;;;;;6251362;28;20471;-66
2023/03/08 15:03:34;;;;;;;6.10;5.60;;;15.60;44.50;;;;;;6250349;28;20481;-65
2023/03/08 15:06:39;;;;;;;8.00;5.20;;;15.50;43.90;;;;;;6251430;28;20467;-61
2023/03/08 15:09:43;;;;;;;7.70;4.80;;;15.30;43.60;;;;;;6250722;28;20471;-62
2023/03/08 15:12:46;;;;;;;10.33;4.63;;;15.10;44.20;;;;;;6248747;28;20467;-62
2023/03/08 15:15:50;;;;;;;5.20;3.87;;;15.10;44.00;;;;;;6249749;28;20482;-62
2023/03/08 15:18:53;;;;;;;6.00;3.90;;;14.80;43.80;;;;;;6250554;28;20644;-62
2023/03/08 15:22:00;;;;;;;6.57;4.70;;;14.80;43.70;;;;;;6249784;28;20485;-62
2023/03/08 15:25:07;;;;;;;5.50;4.33;;;14.70;44.10;;;;;;6250152;28;20486;-62
2023/03/08 15:28:14;;;;;;;6.80;4.30;;;14.70;44.20;;;;;;6250445;28;20478;-62
2023/03/08 15:31:17;;;;;;;4.03;3.10;;;14.70;44.20;;;;;;6254219;28;20755;-62
2023/03/08 15:34:21;;;;;;;6.10;4.13;;;14.80;43.80;;;;;;6251627;28;20498;-61
2023/03/08 15:37:25;;;;;;;4.10;3.43;;;14.80;44.70;;;;;;6251235;28;20980;-62
2023/03/08 15:40:30;;;;;;;6.73;3.50;;;14.80;43.80;;;;;;6250732;28;20475;-62
2023/03/08 15:43:33;;;;;;;3.90;3.30;;;14.70;43.90;;;;;;6250662;28;20479;-61
2023/03/08 15:46:37;;;;;;;5.60;4.43;;;14.60;44.20;;;;;;6225356;28;20472;-62
2023/03/08 15:49:40;;;;;;;6.10;4.67;;;14.60;44.00;;;;;;6249044;28;20482;-61